Time;durP1;ratioP1;P1;durP2;ratioP2;P2;SDS_P1;SDS_P2;PMS_P1;PMS_P2;Temp;Humidity;BMP_temperature;BMP_pressure;BME280_temperature;BME280_humidity;BME280_pressure;Samples;Min_cycle;Max_cycle;Signal;HPM_P1;HPM_P2
2023/11/06 15:01:21;;;;;;;;;;;14.20;86.90;;;;;;5076298;27;19928;-91
2023/11/06 15:03:46;;;;;;;;;;;14.10;88.80;;;;;;5081349;28;19913;-92
2023/11/06 15:06:12;;;;;;;;;;;14.10;90.20;;;;;;5051101;28;20335;-95
2023/11/06 15:08:38;;;;;;;;;;;14.20;90.50;;;;;;5041495;28;19917;-92
2023/11/06 15:11:10;;;;;;;;;;;14.10;91.10;;;;;;5073997;28;19913;-91
2023/11/06 15:13:37;;;;;;;;;;;14.20;91.20;;;;;;5044822;28;19924;-96
2023/11/06 15:16:04;;;;;;;;;;;14.20;91.70;;;;;;5043454;28;19909;-92
2023/11/06 15:18:30;;;;;;;;;;;14.20;91.60;;;;;;5035371;28;19920;-91
2023/11/06 15:20:56;;;;;;;;;;;14.20;91.60;;;;;;5037805;28;19914;-90
2023/11/06 15:23:21;;;;;;;;;;;14.20;91.90;;;;;;5075243;28;19913;-93
2023/11/06 15:25:47;;;;;;;;;;;14.20;91.50;;;;;;5049733;28;20027;-91
2023/11/06 15:28:13;;;;;;;;;;;14.30;90.80;;;;;;5033342;28;19952;-91
2023/11/06 15:30:41;;;;;;;;;;;14.30;90.80;;;;;;5041091;28;20355;-91
2023/11/06 15:33:13;;;;;;;;;;;14.30;91.20;;;;;;5049590;28;19919;-93
2023/11/06 15:35:44;;;;;;;;;;;14.30;91.00;;;;;;5044006;28;20301;-92
2023/11/06 15:38:10;;;;;;;;;;;14.30;90.50;;;;;;5040080;28;19913;-95
2023/11/06 15:40:42;;;;;;;;;;;14.30;89.30;;;;;;5070315;28;20282;-91
2023/11/06 15:43:07;;;;;;;;;;;14.40;89.40;;;;;;5046762;28;19916;-92
2023/11/06 15:45:33;;;;;;;;;;;14.40;89.30;;;;;;5072919;28;19919;-91
2023/11/06 15:48:01;;;;;;;;;;;14.30;89.60;;;;;;5039039;28;20262;-93
2023/11/06 15:50:29;;;;;;;;;;;14.40;89.30;;;;;;5046150;28;20289;-92
2023/11/06 15:52:55;;;;;;;;;;;14.30;89.50;;;;;;5047128;28;19924;-91
2023/11/06 15:55:21;;;;;;;;;;;14.30;89.40;;;;;;5050585;28;19999;-92
2023/11/06 15:57:47;;;;;;;;;;;14.30;89.30;;;;;;5046932;28;19920;-91
2023/11/06 16:00:13;;;;;;;;;;;14.20;89.70;;;;;;5036592;28;19983;-91
2023/11/06 16:02:38;;;;;;;;;;;14.20;89.40;;;;;;5047935;28;20372;-92
2023/11/06 16:05:04;;;;;;;;;;;14.20;89.90;;;;;;5046665;28;20278;-94
2023/11/06 16:07:30;;;;;;;;;;;14.10;90.10;;;;;;5044525;28;19929;-91
2023/11/06 16:09:55;;;;;;;;;;;14.10;90.10;;;;;;5030383;28;20068;-90
2023/11/06 16:12:20;;;;;;;;;;;14.00;90.10;;;;;;5018545;28;19910;-92
2023/11/06 16:14:46;;;;;;;;;;;14.00;90.00;;;;;;5026263;28;19919;-91
2023/11/06 16:17:12;;;;;;;;;;;14.00;90.00;;;;;;5034088;28;19913;-91
2023/11/06 16:19:37;;;;;;;;;;;13.90;90.10;;;;;;5036304;28;19923;-90
2023/11/06 16:22:03;;;;;;;;;;;13.90;90.00;;;;;;5035308;28;19920;-91
2023/11/06 16:24:29;;;;;;;;;;;13.90;90.00;;;;;;5033274;28;20380;-92
2023/11/06 16:26:54;;;;;;;;;;;13.90;90.20;;;;;;5033962;28;20340;-92
2023/11/06 16:29:21;;;;;;;;;;;13.80;90.30;;;;;;5017782;28;20403;-90
2023/11/06 16:31:47;;;;;;;;;;;13.80;90.20;;;;;;5024924;28;20370;-92
2023/11/06 16:34:13;;;;;;;;;;;13.70;90.20;;;;;;5062663;28;19909;-91
2023/11/06 16:36:43;;;;;;;;;;;13.70;90.20;;;;;;5063511;28;19952;-90
2023/11/06 16:39:12;;;;;;;;;;;13.70;90.30;;;;;;5027757;28;19920;-92
2023/11/06 16:41:42;;;;;;;;;;;13.60;90.20;;;;;;5030297;28;20358;-95
2023/11/06 16:44:10;;;;;;;;;;;13.60;90.20;;;;;;5022441;28;19917;-91
2023/11/06 16:46:36;;;;;;;;;;;13.60;90.20;;;;;;5051706;28;20373;-91
2023/11/06 16:49:02;;;;;;;;;;;13.50;90.20;;;;;;5028982;28;19920;-93
2023/11/06 16:51:28;;;;;;;;;;;13.50;90.20;;;;;;5025152;28;19917;-92
2023/11/06 16:53:53;;;;;;;;;;;13.40;90.30;;;;;;5029586;28;20255;-93
2023/11/06 16:56:19;;;;;;;;;;;13.40;90.40;;;;;;5044027;28;19968;-92
2023/11/06 16:58:48;;;;;;;;;;;13.40;90.40;;;;;;5059465;28;19971;-90
2023/11/06 17:01:14;;;;;;;;;;;13.30;90.50;;;;;;5020426;28;19959;-91
2023/11/06 17:03:40;;;;;;;;;;;13.30;90.50;;;;;;5023379;28;19964;-93
2023/11/06 17:06:05;;;;;;;;;;;13.30;90.50;;;;;;5027198;28;19917;-92
2023/11/06 17:08:32;;;;;;;;;;;13.20;90.60;;;;;;5033373;28;19924;-96
2023/11/06 17:10:57;;;;;;;;;;;13.20;90.60;;;;;;5038820;28;20007;-93
2023/11/06 17:13:24;;;;;;;;;;;13.20;90.70;;;;;;5024510;28;20400;-92
2023/11/06 17:15:49;;;;;;;;;;;13.20;90.60;;;;;;5032927;28;19920;-93
2023/11/06 17:18:18;;;;;;;;;;;13.20;90.70;;;;;;5027489;28;20370;-92
2023/11/06 17:20:43;;;;;;;;;;;13.20;90.70;;;;;;5020039;28;19967;-89
2023/11/06 17:23:10;;;;;;;;;;;13.20;91.10;;;;;;5063906;28;19977;-94
2023/11/06 17:25:36;;;;;;;;;;;13.10;90.80;;;;;;5035673;28;19913;-93
2023/11/06 17:28:02;;;;;;;;;;;13.10;90.90;;;;;;5034086;28;19991;-90
2023/11/06 17:30:28;;;;;;;;;;;13.10;91.00;;;;;;5034217;28;19917;-91
2023/11/06 17:32:54;;;;;;;;;;;13.10;91.00;;;;;;5029430;28;20341;-92
2023/11/06 17:35:20;;;;;;;;;;;13.10;91.00;;;;;;5052146;28;19946;-92
2023/11/06 17:37:46;;;;;;;;;;;13.10;90.90;;;;;;5037226;28;20258;-90
2023/11/06 17:40:11;;;;;;;;;;;13.10;90.90;;;;;;5029421;28;19920;-95
2023/11/06 17:42:39;;;;;;;;;;;13.10;90.80;;;;;;5031957;28;19921;-91
2023/11/06 17:45:05;;;;;;;;;;;13.20;90.60;;;;;;5027844;28;19964;-92
2023/11/06 17:47:30;;;;;;;;;;;13.20;90.70;;;;;;5036404;28;19913;-93
2023/11/06 17:49:56;;;;;;;;;;;13.20;90.60;;;;;;5035478;28;19917;-92
2023/11/06 17:52:22;;;;;;;;;;;13.30;90.50;;;;;;5033376;28;21796;-93
2023/11/06 17:54:48;;;;;;;;;;;13.30;90.80;;;;;;5030106;28;19917;-92
2023/11/06 17:57:13;;;;;;;;;;;13.30;90.60;;;;;;5029905;28;19914;-93
2023/11/06 17:59:40;;;;;;;;;;;13.30;90.30;;;;;;5035371;28;19929;-93
2023/11/06 18:02:05;;;;;;;;;;;13.30;90.10;;;;;;5055177;28;19913;-94
2023/11/06 18:04:31;;;;;;;;;;;13.30;90.10;;;;;;5040126;28;19928;-93
2023/11/06 18:06:58;;;;;;;;;;;13.40;90.20;;;;;;5032081;28;19921;-91
2023/11/06 18:09:27;;;;;;;;;;;13.30;90.20;;;;;;5028980;28;20016;-92
2023/11/06 18:11:52;;;;;;;;;;;13.30;90.20;;;;;;5038830;28;20332;-93
2023/11/06 18:14:18;;;;;;;;;;;13.30;90.00;;;;;;5033037;28;19929;-93
2023/11/06 18:16:43;;;;;;;;;;;13.20;89.80;;;;;;5060850;28;19917;-92
2023/11/06 18:19:09;;;;;;;;;;;13.20;89.80;;;;;;5031895;28;20011;-92
2023/11/06 18:21:34;;;;;;;;;;;13.20;89.80;;;;;;5031412;28;20371;-92
2023/11/06 18:24:00;;;;;;;;;;;13.10;89.90;;;;;;5046035;28;19920;-93
2023/11/06 18:26:26;;;;;;;;;;;13.10;90.10;;;;;;5029262;28;20277;-94
2023/11/06 18:28:51;;;;;;;;;;;13.00;90.20;;;;;;5026011;28;19920;-94
2023/11/06 18:31:23;;;;;;;;;;;13.00;90.30;;;;;;5029819;28;19924;-92
2023/11/06 18:33:49;;;;;;;;;;;12.90;90.30;;;;;;5031119;28;19913;-93
2023/11/06 18:36:15;;;;;;;;;;;12.90;90.50;;;;;;5029290;28;20281;-91
2023/11/06 18:38:40;;;;;;;;;;;12.80;90.40;;;;;;5028247;28;19921;-93
2023/11/06 18:41:07;;;;;;;;;;;12.70;90.50;;;;;;5032467;28;20004;-92
2023/11/06 18:43:39;;;;;;;;;;;12.70;90.70;;;;;;5048716;28;19920;-93
2023/11/06 18:46:05;;;;;;;;;;;12.60;90.60;;;;;;5029794;28;20423;-92
2023/11/06 18:48:30;;;;;;;;;;;12.60;90.70;;;;;;5032468;28;19913;-94
2023/11/06 18:50:56;;;;;;;;;;;12.50;90.70;;;;;;5037024;28;19925;-90
2023/11/06 18:53:22;;;;;;;;;;;12.50;90.90;;;;;;5044189;28;20361;-92
2023/11/06 18:55:47;;;;;;;;;;;12.40;90.90;;;;;;5030316;28;19956;-91
2023/11/06 18:58:13;;;;;;;;;;;12.40;90.90;;;;;;5025214;28;20822;-93
2023/11/06 19:00:38;;;;;;;;;;;12.40;91.00;;;;;;5026891;28;19933;-94
2023/11/06 19:03:04;;;;;;;;;;;12.30;90.90;;;;;;5029512;28;20481;-91
2023/11/06 19:05:30;;;;;;;;;;;12.30;90.80;;;;;;5032632;28;19968;-90
2023/11/06 19:07:56;;;;;;;;;;;12.30;90.90;;;;;;5033387;28;20715;-92
2023/11/06 19:10:21;;;;;;;;;;;12.30;90.90;;;;;;5035630;28;21486;-91
2023/11/06 19:12:48;;;;;;;;;;;12.20;91.00;;;;;;5024429;28;19918;-91
2023/11/06 19:15:14;;;;;;;;;;;12.20;91.10;;;;;;5023331;28;19920;-91
2023/11/06 19:17:39;;;;;;;;;;;12.10;91.10;;;;;;5032062;28;20278;-94
2023/11/06 19:20:05;;;;;;;;;;;12.10;91.20;;;;;;5041058;28;19917;-96
2023/11/06 19:22:31;;;;;;;;;;;12.00;91.20;;;;;;5048578;28;19921;-89
2023/11/06 19:25:01;;;;;;;;;;;12.00;91.20;;;;;;5034894;28;20380;-91
2023/11/06 19:27:27;;;;;;;;;;;12.00;91.40;;;;;;5036080;28;19921;-92
2023/11/06 19:29:53;;;;;;;;;;;11.90;91.40;;;;;;5029374;28;19929;-90
2023/11/06 19:32:19;;;;;;;;;;;11.90;91.40;;;;;;5032861;28;19921;-93
2023/11/06 19:34:44;;;;;;;;;;;11.90;91.50;;;;;;5040830;28;19913;-92
2023/11/06 19:37:10;;;;;;;;;;;11.80;91.50;;;;;;5026714;28;19939;-94
2023/11/06 19:39:35;;;;;;;;;;;11.80;91.60;;;;;;5014816;28;19916;-92
2023/11/06 19:42:01;;;;;;;;;;;11.80;91.80;;;;;;5018391;28;19920;-93
2023/11/06 19:44:26;;;;;;;;;;;11.70;91.80;;;;;;5038717;28;19953;-95
2023/11/06 19:47:29;;;;;;;;;;;11.70;91.80;;;;;;5034428;28;19913;-95
2023/11/06 19:49:55;;;;;;;;;;;11.70;91.90;;;;;;5072793;28;19921;-95
2023/11/06 19:52:20;;;;;;;;;;;11.70;92.00;;;;;;5040444;28;19932;-96
2023/11/06 19:54:46;;;;;;;;;;;11.70;92.00;;;;;;5039645;28;19909;-93
2023/11/06 19:57:13;;;;;;;;;;;11.60;92.00;;;;;;5066919;28;19952;-92
